Time;durP1;ratioP1;P1;durP2;ratioP2;P2;SDS_P1;SDS_P2;PMS_P1;PMS_P2;Temp;Humidity;BMP_temperature;BMP_pressure;BME280_temperature;BME280_humidity;BME280_pressure;Samples;Min_cycle;Max_cycle;Signal;HPM_P1;HPM_P2
2021/12/25 00:01:46;;;;;;;2.80;2.23;;;-5.40;99.90;;;;;;5019391;28;20191;-48
2021/12/25 00:04:12;;;;;;;5.30;2.20;;;-5.40;99.90;;;;;;5020754;28;20465;-54
2021/12/25 00:06:37;;;;;;;5.70;2.17;;;-5.50;99.90;;;;;;5016488;28;20947;-48
2021/12/25 00:09:05;;;;;;;5.23;2.37;;;-5.50;99.90;;;;;;5018302;28;20198;-49
2021/12/25 00:11:30;;;;;;;3.87;2.30;;;-5.50;99.90;;;;;;5020946;28;20231;-48
2021/12/25 00:13:56;;;;;;;4.47;2.57;;;-5.50;99.90;;;;;;5020361;28;20519;-49
2021/12/25 00:16:22;;;;;;;4.63;2.67;;;-5.60;99.90;;;;;;5014867;28;20225;-49
2021/12/25 00:18:47;;;;;;;5.10;2.67;;;-5.50;99.90;;;;;;5019960;28;20454;-48
2021/12/25 00:21:13;;;;;;;5.93;2.80;;;-5.60;99.90;;;;;;5019169;28;20203;-48
2021/12/25 00:23:39;;;;;;;4.17;2.87;;;-5.50;99.90;;;;;;5019082;28;20297;-48
2021/12/25 00:26:11;;;;;;;6.40;3.00;;;-5.60;99.90;;;;;;5020340;28;20190;-49
2021/12/25 00:28:53;;;;;;;7.40;3.33;;;-5.60;99.90;;;;;;5016551;28;20907;-48
2021/12/25 00:36:15;;;;;;;4.60;3.20;;;-5.60;99.90;;;;;;5021509;28;20190;-51
2021/12/25 00:38:44;;;;;;;5.37;2.93;;;-5.70;99.90;;;;;;5018622;28;20223;-48
2021/12/25 00:41:12;;;;;;;4.73;3.13;;;-5.70;99.90;;;;;;5017081;28;20972;-49
2021/12/25 00:43:37;;;;;;;7.60;3.03;;;-5.70;99.90;;;;;;5019574;28;20439;-49
2021/12/25 00:46:03;;;;;;;5.43;3.30;;;-5.70;99.90;;;;;;5016848;28;20445;-49
2021/12/25 00:48:29;;;;;;;5.27;2.90;;;-5.70;99.90;;;;;;5020864;28;20614;-49
2021/12/25 00:50:55;;;;;;;6.07;3.00;;;-5.70;99.90;;;;;;5017187;28;20932;-49
2021/12/25 00:53:21;;;;;;;7.00;3.40;;;-5.80;99.90;;;;;;5016629;28;20285;-49
2021/12/25 00:55:46;;;;;;;11.00;3.80;;;-5.80;99.90;;;;;;5020176;28;20437;-49
2021/12/25 00:58:12;;;;;;;7.03;3.50;;;-5.80;99.90;;;;;;5018087;28;20207;-48
2021/12/25 01:00:39;;;;;;;3.73;2.93;;;-5.80;99.90;;;;;;5019821;28;20211;-49
2021/12/25 01:03:05;;;;;;;6.73;3.43;;;-5.90;99.90;;;;;;5018235;28;20552;-49
2021/12/25 01:05:31;;;;;;;5.07;3.00;;;-5.90;99.90;;;;;;5015354;28;20479;-49
2021/12/25 01:07:57;;;;;;;5.60;3.43;;;-5.90;99.90;;;;;;5019833;28;20434;-49
2021/12/25 01:10:22;;;;;;;6.80;3.67;;;-6.00;99.90;;;;;;5018264;28;20885;-50
2021/12/25 01:15:52;;;;;;;5.40;3.60;;;-6.00;99.90;;;;;;5017257;28;20195;-50
2021/12/25 01:21:36;;;;;;;5.00;3.63;;;-6.10;1.00;;;;;;5017759;28;20499;-50
2021/12/25 01:24:20;;;;;;;6.13;3.10;;;-6.10;1.00;;;;;;5017201;28;20516;-50
2021/12/25 01:26:57;;;;;;;7.00;3.73;;;-6.10;1.00;;;;;;5016516;28;20443;-50
2021/12/25 01:32:35;;;;;;;5.27;2.90;;;-6.10;1.00;;;;;;5017896;28;20474;-51
2021/12/25 01:38:04;;;;;;;9.20;3.40;;;-6.00;1.00;;;;;;5016146;28;20507;-50
2021/12/25 01:48:37;;;;;;;5.33;3.40;;;-6.10;1.00;;;;;;5014592;28;20446;-51
2021/12/25 01:51:03;;;;;;;6.30;3.57;;;-6.10;1.00;;;;;;5016969;28;20457;-50
2021/12/25 01:53:28;;;;;;;8.47;3.73;;;-6.10;1.00;;;;;;5017733;28;20536;-50
2021/12/25 01:55:54;;;;;;;5.10;3.40;;;-6.10;1.00;;;;;;5018967;28;20190;-50
2021/12/25 01:58:20;;;;;;;3.77;3.13;;;-6.20;1.00;;;;;;5016959;28;20202;-51
2021/12/25 02:00:52;;;;;;;6.50;3.50;;;-6.20;1.00;;;;;;5016701;28;20784;-50
2021/12/25 02:03:27;;;;;;;7.27;4.40;;;-6.20;1.00;;;;;;5019741;28;20202;-50
2021/12/25 02:05:54;;;;;;;8.37;4.00;;;-6.20;1.00;;;;;;5018372;28;20473;-51
2021/12/25 02:08:20;;;;;;;5.13;2.97;;;-6.30;1.00;;;;;;5016427;28;20535;-50
2021/12/25 02:10:46;;;;;;;11.40;4.17;;;-6.30;1.00;;;;;;5016628;28;20452;-50
2021/12/25 02:13:12;;;;;;;8.03;3.30;;;-6.30;1.00;;;;;;5015855;28;20515;-50
2021/12/25 02:15:45;;;;;;;10.77;3.90;;;-6.30;1.00;;;;;;5017660;28;20191;-51
2021/12/25 02:18:16;;;;;;;8.23;3.37;;;-6.30;1.00;;;;;;5020231;28;20437;-50
2021/12/25 02:20:56;;;;;;;8.50;3.67;;;-6.30;1.00;;;;;;5017397;28;20446;-50
2021/12/25 02:23:24;;;;;;;6.70;3.57;;;-6.30;1.00;;;;;;5016274;28;20442;-52
2021/12/25 02:25:52;;;;;;;5.53;3.10;;;-6.30;1.00;;;;;;5016755;28;20481;-51
2021/12/25 02:28:19;;;;;;;7.43;3.60;;;-6.30;1.00;;;;;;5020357;28;20802;-50
2021/12/25 02:30:47;;;;;;;9.93;3.33;;;-6.30;1.00;;;;;;5019564;28;20963;-50
2021/12/25 02:33:13;;;;;;;8.30;3.07;;;-6.30;1.00;;;;;;5023110;28;20434;-50
2021/12/25 02:35:39;;;;;;;4.53;3.03;;;-6.30;1.00;;;;;;5000856;28;20511;-50
2021/12/25 02:38:05;;;;;;;4.10;3.50;;;-6.30;1.00;;;;;;5018052;28;20227;-49
2021/12/25 02:40:31;;;;;;;9.00;3.90;;;-6.30;1.00;;;;;;5017678;28;20683;-50
2021/12/25 02:42:58;;;;;;;5.13;2.93;;;-6.30;1.00;;;;;;5018247;28;20444;-49
2021/12/25 02:45:24;;;;;;;8.83;3.80;;;-6.20;1.00;;;;;;5020017;28;20507;-50
2021/12/25 02:47:56;;;;;;;10.70;3.47;;;-6.20;1.00;;;;;;5019051;28;20446;-50
2021/12/25 02:50:24;;;;;;;5.43;3.20;;;-6.30;1.00;;;;;;5019602;28;20188;-54
2021/12/25 02:52:51;;;;;;;10.13;3.67;;;-6.30;1.00;;;;;;5021037;28;21090;-50
2021/12/25 02:55:16;;;;;;;5.80;3.50;;;-6.30;1.00;;;;;;5020485;28;20929;-50
2021/12/25 02:57:42;;;;;;;5.97;3.30;;;-6.30;1.00;;;;;;5018238;28;20441;-50
2021/12/25 03:00:08;;;;;;;5.73;3.33;;;-6.30;1.00;;;;;;5017614;28;20176;-50
2021/12/25 03:02:34;;;;;;;10.93;3.60;;;-6.30;1.00;;;;;;5021195;28;20222;-51
2021/12/25 03:05:00;;;;;;;9.93;3.40;;;-6.30;1.00;;;;;;5016378;28;20466;-50
2021/12/25 03:07:26;;;;;;;10.10;3.50;;;-6.40;1.00;;;;;;5016002;28;20450;-50
2021/12/25 03:09:52;;;;;;;9.10;3.60;;;-6.40;1.00;;;;;;5022372;28;20476;-50
2021/12/25 03:12:26;;;;;;;7.47;3.73;;;-6.40;1.00;;;;;;5019465;28;20285;-50
2021/12/25 03:15:14;;;;;;;8.43;3.43;;;-6.40;1.00;;;;;;5020454;28;20194;-50
2021/12/25 03:17:40;;;;;;;6.23;3.50;;;-6.50;1.00;;;;;;5020248;28;20441;-50
2021/12/25 03:20:08;;;;;;;6.50;3.70;;;-6.50;1.00;;;;;;5021241;28;20437;-50
2021/12/25 03:22:34;;;;;;;6.83;3.43;;;-6.50;1.00;;;;;;5020338;28;20204;-50
2021/12/25 03:25:00;;;;;;;8.30;3.80;;;-6.50;1.00;;;;;;5021544;28;20484;-51
2021/12/25 03:27:26;;;;;;;8.93;3.90;;;-6.50;1.00;;;;;;5022597;28;20822;-50
2021/12/25 03:29:52;;;;;;;9.70;3.70;;;-6.50;1.00;;;;;;5017039;28;20212;-50
2021/12/25 03:32:18;;;;;;;12.33;3.50;;;-6.50;1.00;;;;;;5020231;28;20442;-50
2021/12/25 03:34:44;;;;;;;7.90;3.73;;;-6.50;1.00;;;;;;5020328;28;20196;-50
2021/12/25 03:37:09;;;;;;;7.33;3.43;;;-6.50;1.00;;;;;;5017169;28;20462;-50
2021/12/25 03:39:35;;;;;;;9.90;3.70;;;-6.60;1.00;;;;;;5020205;28;20187;-50
2021/12/25 03:42:00;;;;;;;5.73;3.53;;;-6.60;1.00;;;;;;5019381;28;20206;-50
2021/12/25 03:44:28;;;;;;;7.90;3.60;;;-6.60;1.00;;;;;;5017740;28;20231;-50
2021/12/25 03:46:55;;;;;;;7.80;3.87;;;-6.60;22.90;;;;;;5018041;28;20188;-50
2021/12/25 03:49:34;;;;;;;5.77;3.70;;;-6.60;86.40;;;;;;5016467;28;22318;-50
2021/12/25 03:57:45;;;;;;;12.27;3.70;;;-6.60;99.90;;;;;;5012497;28;20489;-50
2021/12/25 04:00:15;;;;;;;12.33;3.83;;;-6.70;99.90;;;;;;5021794;28;20426;-50
2021/12/25 04:02:52;;;;;;;4.90;3.03;;;-6.60;99.90;;;;;;5021019;28;20442;-50
2021/12/25 04:05:20;;;;;;;5.97;3.20;;;-6.60;99.90;;;;;;5020050;28;20458;-50
2021/12/25 04:10:11;;;;;;;6.30;3.43;;;-6.70;99.90;;;;;;5021113;28;20453;-52
2021/12/25 04:12:37;;;;;;;5.10;3.23;;;-6.60;99.90;;;;;;5017578;28;20227;-48
2021/12/25 04:15:04;;;;;;;7.73;3.50;;;-6.70;99.90;;;;;;5021680;28;20203;-51
2021/12/25 04:17:30;;;;;;;4.00;2.63;;;-6.80;99.90;;;;;;5018453;28;20203;-48
2021/12/25 04:19:55;;;;;;;6.60;3.47;;;-6.80;99.90;;;;;;5020088;28;20452;-47
2021/12/25 04:22:29;;;;;;;4.97;2.90;;;-6.80;99.90;;;;;;5020995;28;20277;-48
2021/12/25 04:24:55;;;;;;;6.93;3.07;;;-6.80;99.90;;;;;;5019599;28;20223;-49
2021/12/25 04:27:21;;;;;;;6.23;3.13;;;-6.80;99.90;;;;;;5020120;28;20444;-47
2021/12/25 04:30:03;;;;;;;4.40;2.80;;;-6.80;99.90;;;;;;5018110;28;20298;-47
2021/12/25 05:02:16;;;;;;;7.97;3.17;;;-7.10;1.00;;;;;;5021969;28;20437;-47
2021/12/25 05:04:48;;;;;;;4.67;2.80;;;-7.10;1.00;;;;;;5017994;28;20876;-47
2021/12/25 05:07:13;;;;;;;4.90;3.10;;;-7.10;1.00;;;;;;5017905;28;20936;-47
2021/12/25 05:09:40;;;;;;;4.43;3.30;;;-7.00;1.00;;;;;;5021400;28;20441;-48
2021/12/25 05:12:06;;;;;;;4.07;2.90;;;-7.00;97.60;;;;;;5017684;28;20309;-48
2021/12/25 05:14:32;;;;;;;6.13;2.80;;;-7.00;99.90;;;;;;5019237;28;20449;-47
2021/12/25 05:16:57;;;;;;;4.00;2.37;;;-7.00;99.90;;;;;;5018905;28;20835;-48
2021/12/25 05:19:24;;;;;;;3.83;2.80;;;-7.00;28.80;;;;;;5013177;28;20584;-47
2021/12/25 05:21:50;;;;;;;4.00;2.37;;;-7.00;1.00;;;;;;5021219;28;20214;-48
2021/12/25 05:24:16;;;;;;;8.53;3.47;;;-7.10;1.00;;;;;;5016879;28;20477;-47
2021/12/25 05:26:41;;;;;;;2.50;2.30;;;-7.10;5.40;;;;;;5019537;28;20250;-48
2021/12/25 05:29:07;;;;;;;4.93;3.43;;;-7.10;1.00;;;;;;5017340;28;20191;-47
2021/12/25 05:31:35;;;;;;;5.50;2.60;;;-7.10;83.70;;;;;;5019595;28;20712;-55
2021/12/25 05:34:02;;;;;;;6.03;2.80;;;-7.10;99.90;;;;;;5018453;28;21333;-47
2021/12/25 05:36:28;;;;;;;4.60;2.83;;;-7.10;99.90;;;;;;5016929;28;20541;-48
2021/12/25 05:38:58;;;;;;;6.10;2.83;;;-7.10;99.90;;;;;;5018409;28;20525;-47
2021/12/25 05:41:29;;;;;;;7.40;3.03;;;-7.10;97.90;;;;;;5016977;28;20452;-48
2021/12/25 05:43:55;;;;;;;4.47;3.30;;;-7.20;64.60;;;;;;5017253;28;20546;-48
2021/12/25 05:46:20;;;;;;;5.97;2.77;;;-7.20;99.90;;;;;;5016050;28;20809;-47
2021/12/25 05:48:48;;;;;;;6.57;3.00;;;-7.20;99.90;;;;;;5012872;28;20477;-47
2021/12/25 05:51:14;;;;;;;10.00;3.00;;;-7.20;99.90;;;;;;5017805;28;20186;-48
2021/12/25 05:53:40;;;;;;;9.57;3.03;;;-7.20;99.90;;;;;;5016157;28;20463;-47
2021/12/25 05:56:07;;;;;;;4.37;2.80;;;-7.20;99.90;;;;;;5016880;28;20469;-48
2021/12/25 05:58:33;;;;;;;3.50;2.70;;;-7.20;99.90;;;;;;5019065;28;20446;-48
2021/12/25 06:00:58;;;;;;;4.70;2.80;;;-7.20;99.90;;;;;;5015316;28;20199;-47
2021/12/25 06:03:24;;;;;;;6.40;2.83;;;-7.20;99.90;;;;;;5015472;28;20202;-48
2021/12/25 06:05:50;;;;;;;4.70;2.33;;;-7.20;99.90;;;;;;5020817;28;20219;-47
2021/12/25 06:08:15;;;;;;;4.87;2.23;;;-7.20;99.90;;;;;;5015643;28;20200;-48
2021/12/25 06:10:42;;;;;;;3.93;2.40;;;-7.20;99.90;;;;;;5017783;28;20277;-48
2021/12/25 06:13:11;;;;;;;4.97;2.53;;;-7.20;1.00;;;;;;5015608;28;20231;-48
2021/12/25 06:15:36;;;;;;;7.20;2.60;;;-7.10;99.90;;;;;;5014943;28;20523;-48
2021/12/25 06:18:02;;;;;;;5.97;2.83;;;-7.10;1.00;;;;;;5018082;28;20486;-47
2021/12/25 06:20:28;;;;;;;3.10;2.47;;;-7.10;1.00;;;;;;5015928;28;20207;-47
2021/12/25 06:22:54;;;;;;;3.10;2.30;;;-7.10;1.00;;;;;;5012651;28;20462;-50
2021/12/25 06:25:19;;;;;;;3.00;2.30;;;-7.10;1.00;;;;;;5016540;28;20223;-48
2021/12/25 06:27:45;;;;;;;5.50;2.67;;;-7.00;1.00;;;;;;5015142;28;20569;-47
2021/12/25 06:30:13;;;;;;;5.63;2.10;;;-7.00;1.00;;;;;;5019359;28;20214;-48
2021/12/25 06:32:39;;;;;;;5.10;2.30;;;-7.00;99.90;;;;;;5017280;28;20203;-47
2021/12/25 06:35:05;;;;;;;2.87;2.03;;;-7.00;99.90;;;;;;5019471;28;20457;-47
2021/12/25 06:37:30;;;;;;;4.93;2.70;;;-7.00;1.00;;;;;;5018470;28;20438;-47
2021/12/25 06:39:56;;;;;;;7.20;2.50;;;-7.00;99.90;;;;;;5015185;28;20587;-51
2021/12/25 06:42:22;;;;;;;8.20;2.73;;;-7.00;99.90;;;;;;5017228;28;20217;-47
2021/12/25 06:44:47;;;;;;;3.30;2.50;;;-7.00;99.90;;;;;;5016214;28;20575;-48
2021/12/25 06:47:13;;;;;;;4.20;2.40;;;-7.00;99.90;;;;;;5014398;28;20543;-48
2021/12/25 06:49:38;;;;;;;6.20;2.50;;;-7.00;99.90;;;;;;5015937;28;20472;-47
2021/12/25 06:52:04;;;;;;;5.00;2.80;;;-7.00;99.90;;;;;;5018541;28;20242;-57
2021/12/25 06:54:29;;;;;;;4.63;2.67;;;-7.00;99.90;;;;;;5013115;28;20206;-51
2021/12/25 06:56:55;;;;;;;6.43;3.00;;;-7.10;99.90;;;;;;5016840;28;20214;-52
2021/12/25 06:59:23;;;;;;;5.20;2.60;;;-7.10;99.90;;;;;;5016782;28;20250;-48
2021/12/25 07:01:50;;;;;;;7.90;3.10;;;-7.10;99.90;;;;;;5020108;28;20210;-47
2021/12/25 07:04:16;;;;;;;12.03;3.17;;;-7.10;99.90;;;;;;5016552;28;20457;-48
2021/12/25 07:06:42;;;;;;;7.00;3.23;;;-7.10;99.90;;;;;;5017200;28;20491;-48
2021/12/25 07:09:09;;;;;;;4.87;2.53;;;-7.20;99.90;;;;;;5013808;28;20203;-47
2021/12/25 07:11:36;;;;;;;8.10;3.00;;;-7.20;99.90;;;;;;5018294;28;20246;-48
2021/12/25 07:14:04;;;;;;;7.77;2.77;;;-7.20;99.90;;;;;;5022387;28;20469;-48
2021/12/25 07:16:30;;;;;;;5.40;3.07;;;-7.20;99.90;;;;;;5013922;28;20453;-48
2021/12/25 07:18:56;;;;;;;4.37;2.83;;;-7.20;99.90;;;;;;5021192;28;20536;-47
2021/12/25 07:21:22;;;;;;;7.37;3.00;;;-7.20;99.90;;;;;;5018507;28;20533;-48
2021/12/25 07:23:48;;;;;;;4.53;3.00;;;-7.20;99.90;;;;;;5015319;28;20210;-47
2021/12/25 07:26:17;;;;;;;4.23;3.00;;;-7.20;99.90;;;;;;5022763;28;20210;-49
2021/12/25 07:28:44;;;;;;;4.23;2.67;;;-7.30;99.90;;;;;;5019698;28;20199;-47
2021/12/25 07:31:09;;;;;;;4.07;2.57;;;-7.20;99.90;;;;;;5020419;28;20454;-48
2021/12/25 07:33:36;;;;;;;3.20;2.63;;;-7.20;1.00;;;;;;5022773;28;20919;-47
2021/12/25 07:36:03;;;;;;;7.40;3.50;;;-7.20;99.90;;;;;;5019899;28;20199;-48
2021/12/25 07:38:29;;;;;;;8.80;3.40;;;-7.20;99.90;;;;;;5021937;28;20453;-52
2021/12/25 07:40:54;;;;;;;6.40;3.33;;;-7.20;99.90;;;;;;5020815;28;20800;-47
2021/12/25 07:43:20;;;;;;;4.83;3.00;;;-7.20;99.90;;;;;;5016561;28;20227;-48
2021/12/25 07:45:52;;;;;;;7.60;3.70;;;-7.30;99.90;;;;;;5020574;28;20273;-51
2021/12/25 07:48:20;;;;;;;7.80;3.47;;;-7.20;99.90;;;;;;5019286;28;20276;-48
2021/12/25 07:50:48;;;;;;;3.70;2.90;;;-7.20;99.90;;;;;;5021996;28;20437;-47
2021/12/25 07:53:16;;;;;;;5.20;3.47;;;-7.20;99.90;;;;;;5016702;28;20443;-52
2021/12/25 07:55:42;;;;;;;5.67;3.07;;;-7.20;99.90;;;;;;5016014;28;20442;-48
2021/12/25 07:58:08;;;;;;;5.70;2.90;;;-7.20;99.90;;;;;;5017855;28;20826;-48
2021/12/25 08:00:33;;;;;;;11.33;3.57;;;-7.20;99.90;;;;;;5020366;28;20454;-47
2021/12/25 08:02:59;;;;;;;12.03;3.77;;;-7.20;99.90;;;;;;5011063;28;20235;-48
2021/12/25 08:05:24;;;;;;;8.13;3.57;;;-7.10;99.90;;;;;;5020370;28;20234;-48
2021/12/25 08:07:50;;;;;;;12.47;3.43;;;-7.10;99.90;;;;;;5017417;28;20206;-48
2021/12/25 08:10:20;;;;;;;6.17;2.90;;;-7.10;99.90;;;;;;5016525;28;20600;-48
2021/12/25 08:12:51;;;;;;;3.97;2.80;;;-7.10;99.90;;;;;;5004930;28;20257;-50
2021/12/25 08:15:18;;;;;;;4.93;2.93;;;-7.00;99.90;;;;;;5019493;28;20453;-48
2021/12/25 08:17:44;;;;;;;8.23;3.50;;;-7.00;99.90;;;;;;5022010;28;20445;-48
2021/12/25 08:20:11;;;;;;;8.73;3.43;;;-7.00;99.90;;;;;;5017815;28;20445;-48
2021/12/25 08:22:37;;;;;;;7.70;3.40;;;-7.00;99.90;;;;;;5021828;28;20998;-49
2021/12/25 08:25:04;;;;;;;9.20;3.60;;;-6.90;99.90;;;;;;5019369;28;20465;-47
2021/12/25 08:27:30;;;;;;;6.27;3.53;;;-6.80;99.90;;;;;;5016412;28;20529;-48
2021/12/25 08:29:55;;;;;;;6.30;3.60;;;-6.80;99.90;;;;;;5019862;28;20876;-48
2021/12/25 08:32:21;;;;;;;3.83;3.00;;;-6.70;45.30;;;;;;5019857;28;20246;-53
2021/12/25 08:34:47;;;;;;;11.30;3.30;;;-6.70;1.00;;;;;;5015415;28;20196;-51
2021/12/25 08:37:13;;;;;;;8.50;3.43;;;-6.70;1.00;;;;;;5020506;28;20653;-48
2021/12/25 08:39:39;;;;;;;8.80;3.40;;;-6.60;1.00;;;;;;5017409;28;20199;-48
2021/12/25 08:42:05;;;;;;;6.33;3.43;;;-6.50;1.00;;;;;;5019504;28;20948;-50
2021/12/25 08:44:52;;;;;;;5.60;3.70;;;-6.50;1.00;;;;;;5017674;28;20471;-48
2021/12/25 08:47:18;;;;;;;7.60;3.13;;;-6.40;1.00;;;;;;5014752;28;20500;-48
2021/12/25 08:49:43;;;;;;;5.00;3.47;;;-6.30;1.00;;;;;;5017899;28;20450;-48
2021/12/25 08:52:14;;;;;;;5.67;3.00;;;-6.30;1.00;;;;;;5018911;28;20640;-48
2021/12/25 08:54:41;;;;;;;6.20;3.27;;;-6.30;1.00;;;;;;5019891;28;20205;-48
2021/12/25 08:57:08;;;;;;;4.63;3.00;;;-6.20;1.00;;;;;;5018744;28;20438;-48
2021/12/25 08:59:35;;;;;;;5.53;3.20;;;-6.20;99.90;;;;;;5017924;28;20485;-47
2021/12/25 09:02:04;;;;;;;5.17;2.80;;;-6.10;99.90;;;;;;5014994;28;21092;-62
2021/12/25 09:04:31;;;;;;;7.20;2.97;;;-6.00;99.90;;;;;;5019746;28;20462;-48
2021/12/25 09:06:56;;;;;;;6.80;3.10;;;-6.00;99.90;;;;;;5017773;28;20441;-48
2021/12/25 09:09:22;;;;;;;7.60;3.30;;;-5.90;99.90;;;;;;5004692;28;20813;-48
2021/12/25 09:11:47;;;;;;;9.60;3.20;;;-5.90;99.90;;;;;;5016123;28;20786;-48
2021/12/25 09:14:13;;;;;;;4.80;3.47;;;-5.80;99.90;;;;;;5018064;28;20212;-52
2021/12/25 09:16:39;;;;;;;7.40;3.17;;;-5.80;99.90;;;;;;5013971;28;20269;-48
2021/12/25 09:19:06;;;;;;;10.33;3.43;;;-5.70;99.90;;;;;;5016785;28;20206;-48
2021/12/25 09:21:32;;;;;;;3.90;2.73;;;-5.60;99.90;;;;;;5006232;28;20458;-48
2021/12/25 09:23:57;;;;;;;5.43;2.97;;;-5.50;99.90;;;;;;5018193;28;20450;-48
2021/12/25 09:26:23;;;;;;;6.20;3.60;;;-5.50;99.90;;;;;;5017347;28;20260;-48
2021/12/25 09:28:49;;;;;;;3.63;2.70;;;-5.40;99.90;;;;;;5016852;28;20222;-48
2021/12/25 09:31:15;;;;;;;3.23;2.70;;;-5.30;99.90;;;;;;5017005;28;20199;-48
2021/12/25 09:33:40;;;;;;;10.33;3.47;;;-5.20;99.90;;;;;;5016738;28;20195;-48
2021/12/25 09:36:06;;;;;;;9.50;4.67;;;-5.20;40.70;;;;;;5017305;28;20470;-48
2021/12/25 09:38:34;;;;;;;11.20;5.57;;;-5.10;90.60;;;;;;5016520;28;20203;-48
2021/12/25 09:41:00;;;;;;;8.83;4.57;;;-4.90;53.30;;;;;;5015755;28;20541;-49
2021/12/25 09:43:26;;;;;;;8.00;4.93;;;-4.80;7.00;;;;;;5016569;28;20456;-48
2021/12/25 09:45:53;;;;;;;8.60;5.17;;;-4.70;26.90;;;;;;5018446;28;20933;-49
2021/12/25 09:48:19;;;;;;;11.30;5.30;;;-4.60;3.10;;;;;;5016192;28;20187;-48
2021/12/25 09:50:45;;;;;;;14.50;6.47;;;-4.50;6.90;;;;;;5017185;28;20901;-49
2021/12/25 09:53:13;;;;;;;11.33;5.57;;;-4.40;3.40;;;;;;5016256;28;20749;-49
2021/12/25 09:55:39;;;;;;;9.10;5.10;;;-4.30;1.00;;;;;;5016730;28;20926;-51
2021/12/25 09:58:06;;;;;;;9.70;5.57;;;-4.20;1.00;;;;;;5017994;28;20449;-49
2021/12/25 10:00:35;;;;;;;11.00;5.07;;;-4.20;1.00;;;;;;5024023;28;20445;-49
2021/12/25 10:03:00;;;;;;;10.27;5.10;;;-4.10;1.00;;;;;;5026906;28;21069;-48
2021/12/25 10:05:32;;;;;;;9.70;4.40;;;-4.00;1.00;;;;;;5022215;28;20481;-49
2021/12/25 10:08:11;;;;;;;7.97;5.10;;;-3.90;1.00;;;;;;5019168;28;20197;-52
2021/12/25 10:10:46;;;;;;;6.90;4.30;;;-3.80;1.00;;;;;;5018921;28;20430;-48
2021/12/25 10:13:28;;;;;;;5.80;4.43;;;-3.80;1.00;;;;;;5022975;28;20465;-48
2021/12/25 10:16:17;;;;;;;7.77;4.67;;;-3.60;1.00;;;;;;5016559;28;20438;-49
2021/12/25 10:18:42;;;;;;;10.80;3.80;;;-3.50;1.00;;;;;;5020023;28;20928;-48
2021/12/25 10:21:22;;;;;;;7.07;3.40;;;-3.30;1.00;;;;;;5023936;28;20430;-49
2021/12/25 10:24:05;;;;;;;7.27;3.80;;;-3.10;1.00;;;;;;5022496;28;20696;-49
2021/12/25 10:26:32;;;;;;;6.37;3.33;;;-2.90;1.00;;;;;;5023476;28;20441;-50
2021/12/25 10:28:57;;;;;;;9.10;3.10;;;-2.70;1.00;;;;;;5018583;28;20472;-49
2021/12/25 10:31:32;;;;;;;3.53;2.97;;;-2.50;99.90;;;;;;5017971;28;20445;-49
2021/12/25 10:33:58;;;;;;;5.57;3.10;;;-2.20;99.90;;;;;;5015926;28;21799;-49
2021/12/25 10:36:30;;;;;;;5.87;2.80;;;-1.30;1.00;;;;;;5014080;28;20441;-49
2021/12/25 10:39:11;;;;;;;5.63;2.80;;;0.10;1.00;;;;;;5015916;28;20208;-50
2021/12/25 10:41:49;;;;;;;6.10;2.90;;;1.00;1.00;;;;;;5017572;28;20441;-49
2021/12/25 10:44:27;;;;;;;6.03;2.80;;;1.60;1.00;;;;;;5011016;28;20584;-49
2021/12/25 10:47:02;;;;;;;5.70;2.63;;;2.30;1.00;;;;;;5000615;28;20443;-47
2021/12/25 10:49:33;;;;;;;3.83;2.60;;;3.00;99.90;;;;;;5020783;28;20810;-46
2021/12/25 10:52:15;;;;;;;3.93;2.47;;;3.40;99.90;;;;;;5021046;28;20816;-46
2021/12/25 10:54:46;;;;;;;4.60;2.63;;;3.70;99.90;;;;;;5018191;28;20434;-47
2021/12/25 10:57:31;;;;;;;3.67;1.87;;;5.10;99.90;;;;;;5018326;28;20520;-48
2021/12/25 10:59:57;;;;;;;7.83;2.40;;;7.50;99.90;;;;;;5020884;28;20508;-49
2021/12/25 11:02:38;;;;;;;6.13;1.77;;;10.20;99.90;;;;;;5020721;28;20453;-47
2021/12/25 11:05:22;;;;;;;2.90;1.80;;;11.70;99.90;;;;;;5019746;28;20233;-48
2021/12/25 11:08:01;;;;;;;4.17;2.23;;;12.30;99.90;;;;;;5029352;28;20528;-52
2021/12/25 11:10:26;;;;;;;6.70;2.17;;;12.30;99.90;;;;;;5025282;28;20452;-50
2021/12/25 11:12:52;;;;;;;2.67;1.90;;;11.90;99.90;;;;;;5032547;28;20473;-49
2021/12/25 11:15:24;;;;;;;5.13;2.57;;;11.00;99.90;;;;;;5030552;28;20644;-50
2021/12/25 11:17:53;;;;;;;4.40;2.30;;;10.00;99.90;;;;;;5021452;28;20198;-48
2021/12/25 11:20:40;;;;;;;5.03;2.20;;;9.50;99.90;;;;;;5023115;28;20788;-50
2021/12/25 11:23:09;;;;;;;4.93;2.00;;;9.30;99.90;;;;;;5022567;28;20433;-49
2021/12/25 11:25:37;;;;;;;5.07;2.07;;;8.30;99.90;;;;;;5017904;28;20982;-49
2021/12/25 11:28:06;;;;;;;3.00;1.77;;;7.50;99.90;;;;;;5018703;28;20940;-49
2021/12/25 11:30:34;;;;;;;3.90;2.33;;;7.20;99.90;;;;;;5018599;28;20441;-49
2021/12/25 11:33:00;;;;;;;5.57;2.23;;;7.20;99.90;;;;;;5018640;28;20461;-48
2021/12/25 11:35:27;;;;;;;3.60;1.87;;;7.20;99.90;;;;;;5022005;28;20449;-47
2021/12/25 11:37:55;;;;;;;3.13;2.40;;;7.00;99.90;;;;;;5018600;28;20457;-49
2021/12/25 11:40:24;;;;;;;3.60;2.00;;;6.50;99.90;;;;;;5019326;28;20517;-47
2021/12/25 11:42:54;;;;;;;5.20;2.60;;;6.30;99.90;;;;;;5022252;28;22064;-47
2021/12/25 11:45:21;;;;;;;3.80;2.30;;;6.10;99.90;;;;;;5020308;28;20580;-47
2021/12/25 11:47:52;;;;;;;4.43;2.30;;;5.70;99.90;;;;;;5022126;28;20441;-46
2021/12/25 11:50:24;;;;;;;3.60;2.30;;;5.50;99.90;;;;;;5020062;28;20446;-49
2021/12/25 11:53:23;;;;;;;5.43;2.47;;;5.30;99.90;;;;;;5016944;28;20442;-46
2021/12/25 11:58:39;;;;;;;5.23;2.60;;;5.20;99.90;;;;;;5020333;28;20442;-48
2021/12/25 12:01:28;;;;;;;11.10;3.00;;;5.30;99.90;;;;;;5017967;28;20450;-47
2021/12/25 12:04:10;;;;;;;6.03;2.93;;;5.40;99.90;;;;;;5022194;28;20464;-47
2021/12/25 12:06:45;;;;;;;4.60;2.53;;;5.10;99.90;;;;;;5019525;28;20473;-47
2021/12/25 12:09:12;;;;;;;9.60;3.10;;;5.30;99.90;;;;;;5019251;28;20556;-46
2021/12/25 12:11:40;;;;;;;6.57;3.10;;;5.80;99.90;;;;;;5023366;28;21187;-50
2021/12/25 12:14:19;;;;;;;3.13;2.37;;;6.10;99.90;;;;;;5004178;28;20442;-46
2021/12/25 12:16:52;;;;;;;6.57;2.60;;;6.30;99.90;;;;;;5018094;28;20446;-47
2021/12/25 12:19:30;;;;;;;4.43;2.60;;;5.90;99.90;;;;;;5021380;28;20551;-46
2021/12/25 12:21:56;;;;;;;3.23;2.43;;;5.70;99.90;;;;;;5022600;28;20442;-46
2021/12/25 12:27:04;;;;;;;4.73;2.73;;;5.70;99.90;;;;;;5015758;28;21157;-47
2021/12/25 12:29:39;;;;;;;5.10;2.60;;;6.40;99.90;;;;;;5025539;28;20476;-46
2021/12/25 12:32:32;;;;;;;7.57;2.83;;;8.00;99.90;;;;;;5013425;28;20438;-47
2021/12/25 12:34:58;;;;;;;8.10;2.83;;;9.80;99.90;;;;;;5018511;28;21106;-47
2021/12/25 12:37:29;;;;;;;5.13;2.33;;;11.50;99.90;;;;;;5019429;28;20460;-47
2021/12/25 12:40:01;;;;;;;7.53;3.43;;;12.40;99.90;;;;;;5020507;28;20190;-51
2021/12/25 12:45:18;;;;;;;3.53;2.40;;;13.50;99.90;;;;;;5016949;28;20482;-47
2021/12/25 12:48:09;;;;;;;13.20;2.40;;;14.30;99.90;;;;;;5015704;28;20438;-47
2021/12/25 12:50:36;;;;;;;11.83;2.90;;;14.40;99.90;;;;;;5015033;28;20537;-47
2021/12/25 12:53:06;;;;;;;5.60;2.53;;;13.90;99.90;;;;;;5014820;28;20469;-47
2021/12/25 12:55:34;;;;;;;5.93;2.77;;;14.00;99.90;;;;;;5019839;28;20461;-47
2021/12/25 12:58:22;;;;;;;3.57;2.30;;;14.90;99.90;;;;;;5024465;28;20421;-48
2021/12/25 13:00:55;;;;;;;5.40;2.57;;;15.00;99.90;;;;;;5023025;28;20418;-49
2021/12/25 13:03:22;;;;;;;4.03;2.23;;;14.70;99.90;;;;;;5011700;28;20426;-47
2021/12/25 13:05:55;;;;;;;3.40;2.13;;;14.10;99.90;;;;;;5015044;28;20473;-48
2021/12/25 13:08:31;;;;;;;8.03;2.83;;;12.70;99.90;;;;;;5015778;28;21132;-47
2021/12/25 13:11:06;;;;;;;5.10;2.70;;;10.70;99.90;;;;;;5019440;28;20938;-47
2021/12/25 13:13:38;;;;;;;6.87;2.50;;;9.50;99.90;;;;;;5021603;28;20473;-49
2021/12/25 13:16:08;;;;;;;5.97;2.90;;;8.50;99.90;;;;;;5018939;28;20433;-48
2021/12/25 13:18:37;;;;;;;7.20;2.50;;;7.70;99.90;;;;;;5013178;28;20443;-46
2021/12/25 13:21:08;;;;;;;7.97;3.33;;;7.80;99.90;;;;;;5015150;28;20975;-48
2021/12/25 13:23:38;;;;;;;8.73;3.20;;;8.40;99.90;;;;;;5015825;28;20458;-48
2021/12/25 13:26:09;;;;;;;8.53;3.20;;;9.40;99.90;;;;;;5015146;28;20917;-47
2021/12/25 13:28:41;;;;;;;5.90;3.10;;;10.60;99.90;;;;;;5019926;28;20613;-47
2021/12/25 13:31:18;;;;;;;4.60;2.50;;;11.30;99.90;;;;;;5018166;28;20465;-47
2021/12/25 13:33:59;;;;;;;5.40;2.83;;;11.20;99.90;;;;;;5015365;28;20423;-49
2021/12/25 13:36:28;;;;;;;9.50;3.37;;;9.90;99.90;;;;;;5014998;28;20470;-48
2021/12/25 13:38:59;;;;;;;10.90;3.30;;;8.60;99.90;;;;;;5019500;28;20446;-51
2021/12/25 13:41:48;;;;;;;5.53;3.33;;;7.20;99.90;;;;;;5014526;28;20480;-48
2021/12/25 13:44:16;;;;;;;5.80;3.50;;;6.30;99.90;;;;;;5018325;28;20436;-48
2021/12/25 13:46:46;;;;;;;9.60;4.27;;;5.50;99.90;;;;;;5018841;28;20455;-47
2021/12/25 13:49:25;;;;;;;5.30;3.20;;;4.50;99.90;;;;;;5016891;28;20465;-48
2021/12/25 13:51:50;;;;;;;5.40;4.00;;;3.50;99.90;;;;;;5014675;28;20446;-51
2021/12/25 13:54:20;;;;;;;12.70;3.80;;;3.00;99.90;;;;;;5018422;28;20802;-47
2021/12/25 13:56:52;;;;;;;4.63;3.70;;;2.70;99.90;;;;;;5016543;28;20198;-47
2021/12/25 13:59:19;;;;;;;9.40;4.00;;;3.30;99.90;;;;;;5006554;28;20450;-47
2021/12/25 14:02:02;;;;;;;6.70;3.77;;;3.80;99.90;;;;;;5019018;28;20445;-51
2021/12/25 14:04:29;;;;;;;4.87;3.73;;;3.80;99.90;;;;;;5016745;28;20473;-48
2021/12/25 14:06:55;;;;;;;10.20;3.80;;;3.20;99.90;;;;;;5017288;28;20446;-47
2021/12/25 14:09:21;;;;;;;6.20;4.10;;;2.60;99.90;;;;;;5017930;28;20476;-47
2021/12/25 14:11:55;;;;;;;6.67;4.07;;;2.00;99.90;;;;;;5016180;28;20482;-47